sensor_id;sensor_type;location;lat;lon;timestamp;P1;durP1;ratioP1;P2;durP2;ratioP2
60241;SDS011;46103;52.076;113.488;2023-03-03T00:00:46;44.90;;;18.77;;
60241;SDS011;46103;52.076;113.488;2023-03-03T00:03:50;53.20;;;20.70;;
60241;SDS011;46103;52.076;113.488;2023-03-03T00:06:54;107.00;;;38.65;;
60241;SDS011;46103;52.076;113.488;2023-03-03T00:09:57;77.82;;;29.98;;
60241;SDS011;46103;52.076;113.488;2023-03-03T00:13:01;58.80;;;24.63;;
60241;SDS011;46103;52.076;113.488;2023-03-03T00:16:10;91.55;;;34.50;;
60241;SDS011;46103;52.076;113.488;2023-03-03T00:19:28;107.25;;;39.67;;
60241;SDS011;46103;52.076;113.488;2023-03-03T00:22:36;133.25;;;42.25;;
60241;SDS011;46103;52.076;113.488;2023-03-03T00:25:42;110.40;;;41.00;;
60241;SDS011;46103;52.076;113.488;2023-03-03T00:28:47;58.33;;;21.63;;
60241;SDS011;46103;52.076;113.488;2023-03-03T00:32:18;132.00;;;47.90;;
60241;SDS011;46103;52.076;113.488;2023-03-03T00:35:37;162.60;;;54.50;;
60241;SDS011;46103;52.076;113.488;2023-03-03T00:38:41;170.13;;;57.42;;
60241;SDS011;46103;52.076;113.488;2023-03-03T00:41:45;159.32;;;54.88;;
60241;SDS011;46103;52.076;113.488;2023-03-03T00:44:56;178.90;;;60.67;;
60241;SDS011;46103;52.076;113.488;2023-03-03T00:48:06;128.25;;;47.42;;
60241;SDS011;46103;52.076;113.488;2023-03-03T00:51:29;172.05;;;58.35;;
60241;SDS011;46103;52.076;113.488;2023-03-03T00:54:36;179.88;;;60.20;;
60241;SDS011;46103;52.076;113.488;2023-03-03T00:57:39;139.80;;;48.22;;
60241;SDS011;46103;52.076;113.488;2023-03-03T01:00:44;82.60;;;32.75;;
60241;SDS011;46103;52.076;113.488;2023-03-03T01:03:50;98.72;;;34.72;;
60241;SDS011;46103;52.076;113.488;2023-03-03T01:06:54;170.48;;;56.65;;
60241;SDS011;46103;52.076;113.488;2023-03-03T01:09:57;174.30;;;60.08;;
60241;SDS011;46103;52.076;113.488;2023-03-03T01:13:03;92.40;;;36.42;;
60241;SDS011;46103;52.076;113.488;2023-03-03T01:16:08;67.68;;;25.58;;
60241;SDS011;46103;52.076;113.488;2023-03-03T01:19:11;136.27;;;47.38;;
60241;SDS011;46103;52.076;113.488;2023-03-03T01:22:14;179.38;;;62.17;;
60241;SDS011;46103;52.076;113.488;2023-03-03T01:25:18;227.27;;;72.82;;
60241;SDS011;46103;52.076;113.488;2023-03-03T01:28:20;201.40;;;72.32;;
60241;SDS011;46103;52.076;113.488;2023-03-03T01:31:25;196.38;;;68.22;;
60241;SDS011;46103;52.076;113.488;2023-03-03T01:34:28;205.75;;;69.25;;
60241;SDS011;46103;52.076;113.488;2023-03-03T01:37:33;163.38;;;55.38;;
60241;SDS011;46103;52.076;113.488;2023-03-03T01:40:37;230.80;;;78.90;;
60241;SDS011;46103;52.076;113.488;2023-03-03T01:43:45;225.15;;;79.30;;
60241;SDS011;46103;52.076;113.488;2023-03-03T01:50:00;179.63;;;60.20;;
60241;SDS011;46103;52.076;113.488;2023-03-03T01:53:10;129.90;;;46.38;;
60241;SDS011;46103;52.076;113.488;2023-03-03T01:56:22;141.27;;;50.55;;
60241;SDS011;46103;52.076;113.488;2023-03-03T01:59:28;195.73;;;65.85;;
60241;SDS011;46103;52.076;113.488;2023-03-03T02:02:40;114.03;;;43.70;;
60241;SDS011;46103;52.076;113.488;2023-03-03T02:05:45;158.15;;;53.90;;
60241;SDS011;46103;52.076;113.488;2023-03-03T02:12:00;73.18;;;29.73;;
60241;SDS011;46103;52.076;113.488;2023-03-03T02:15:18;73.53;;;27.13;;
60241;SDS011;46103;52.076;113.488;2023-03-03T02:18:24;83.47;;;32.13;;
60241;SDS011;46103;52.076;113.488;2023-03-03T02:21:29;96.20;;;37.78;;
60241;SDS011;46103;52.076;113.488;2023-03-03T02:24:34;106.55;;;39.63;;
60241;SDS011;46103;52.076;113.488;2023-03-03T02:27:44;113.63;;;42.88;;
60241;SDS011;46103;52.076;113.488;2023-03-03T02:30:48;115.15;;;43.83;;
60241;SDS011;46103;52.076;113.488;2023-03-03T02:33:52;120.05;;;44.33;;
60241;SDS011;46103;52.076;113.488;2023-03-03T02:36:56;105.75;;;42.50;;
60241;SDS011;46103;52.076;113.488;2023-03-03T02:39:59;115.30;;;42.95;;
60241;SDS011;46103;52.076;113.488;2023-03-03T02:43:06;76.05;;;30.02;;
60241;SDS011;46103;52.076;113.488;2023-03-03T02:46:12;89.95;;;34.72;;
60241;SDS011;46103;52.076;113.488;2023-03-03T02:49:16;84.68;;;35.25;;
60241;SDS011;46103;52.076;113.488;2023-03-03T02:55:25;75.80;;;29.95;;
60241;SDS011;46103;52.076;113.488;2023-03-03T02:58:29;81.28;;;31.58;;
60241;SDS011;46103;52.076;113.488;2023-03-03T03:01:32;79.55;;;33.35;;
60241;SDS011;46103;52.076;113.488;2023-03-03T03:04:44;73.50;;;30.98;;
60241;SDS011;46103;52.076;113.488;2023-03-03T03:10:58;77.10;;;32.42;;
60241;SDS011;46103;52.076;113.488;2023-03-03T03:14:04;76.78;;;31.38;;
60241;SDS011;46103;52.076;113.488;2023-03-03T03:17:08;78.70;;;32.10;;
60241;SDS011;46103;52.076;113.488;2023-03-03T03:20:12;65.50;;;26.67;;
60241;SDS011;46103;52.076;113.488;2023-03-03T03:23:17;80.50;;;31.40;;
60241;SDS011;46103;52.076;113.488;2023-03-03T03:26:20;65.30;;;25.80;;
60241;SDS011;46103;52.076;113.488;2023-03-03T03:29:25;53.70;;;23.45;;
60241;SDS011;46103;52.076;113.488;2023-03-03T03:32:29;43.28;;;17.98;;
60241;SDS011;46103;52.076;113.488;2023-03-03T03:35:34;23.80;;;9.95;;
60241;SDS011;46103;52.076;113.488;2023-03-03T03:38:42;45.33;;;17.77;;
60241;SDS011;46103;52.076;113.488;2023-03-03T03:41:49;39.65;;;16.10;;
60241;SDS011;46103;52.076;113.488;2023-03-03T03:44:52;37.55;;;14.45;;
60241;SDS011;46103;52.076;113.488;2023-03-03T03:47:56;34.83;;;15.25;;
60241;SDS011;46103;52.076;113.488;2023-03-03T03:51:00;41.70;;;16.23;;
60241;SDS011;46103;52.076;113.488;2023-03-03T03:54:05;37.83;;;15.07;;
60241;SDS011;46103;52.076;113.488;2023-03-03T03:57:10;32.88;;;14.07;;
60241;SDS011;46103;52.076;113.488;2023-03-03T04:00:14;35.40;;;15.02;;
60241;SDS011;46103;52.076;113.488;2023-03-03T04:03:24;30.13;;;12.43;;
60241;SDS011;46103;52.076;113.488;2023-03-03T04:06:29;36.25;;;12.07;;
60241;SDS011;46103;52.076;113.488;2023-03-03T04:09:34;29.77;;;13.02;;
60241;SDS011;46103;52.076;113.488;2023-03-03T04:12:39;35.45;;;13.45;;
60241;SDS011;46103;52.076;113.488;2023-03-03T04:15:46;34.92;;;13.90;;
60241;SDS011;46103;52.076;113.488;2023-03-03T04:18:50;32.25;;;13.98;;
60241;SDS011;46103;52.076;113.488;2023-03-03T04:21:55;24.35;;;9.10;;
60241;SDS011;46103;52.076;113.488;2023-03-03T04:24:59;30.58;;;10.05;;
60241;SDS011;46103;52.076;113.488;2023-03-03T04:28:12;25.38;;;9.80;;
60241;SDS011;46103;52.076;113.488;2023-03-03T04:31:17;24.35;;;9.60;;
60241;SDS011;46103;52.076;113.488;2023-03-03T04:34:22;36.63;;;8.63;;
60241;SDS011;46103;52.076;113.488;2023-03-03T04:37:27;22.83;;;7.82;;
60241;SDS011;46103;52.076;113.488;2023-03-03T04:40:30;24.25;;;7.40;;
60241;SDS011;46103;52.076;113.488;2023-03-03T04:43:35;16.95;;;7.90;;
60241;SDS011;46103;52.076;113.488;2023-03-03T04:46:39;19.25;;;9.10;;
60241;SDS011;46103;52.076;113.488;2023-03-03T04:49:43;11.20;;;4.05;;
60241;SDS011;46103;52.076;113.488;2023-03-03T04:52:47;25.58;;;7.00;;
60241;SDS011;46103;52.076;113.488;2023-03-03T04:55:51;18.35;;;5.35;;
60241;SDS011;46103;52.076;113.488;2023-03-03T04:58:56;13.73;;;5.03;;
60241;SDS011;46103;52.076;113.488;2023-03-03T05:01:59;19.20;;;4.63;;
60241;SDS011;46103;52.076;113.488;2023-03-03T05:05:03;12.50;;;4.53;;
60241;SDS011;46103;52.076;113.488;2023-03-03T05:08:06;10.38;;;4.18;;
60241;SDS011;46103;52.076;113.488;2023-03-03T05:11:10;11.73;;;4.78;;
60241;SDS011;46103;52.076;113.488;2023-03-03T05:14:15;18.70;;;5.22;;
60241;SDS011;46103;52.076;113.488;2023-03-03T05:17:19;15.68;;;5.30;;
60241;SDS011;46103;52.076;113.488;2023-03-03T05:20:23;12.68;;;4.63;;
60241;SDS011;46103;52.076;113.488;2023-03-03T05:23:29;13.85;;;4.63;;
60241;SDS011;46103;52.076;113.488;2023-03-03T05:26:33;8.88;;;3.20;;
60241;SDS011;46103;52.076;113.488;2023-03-03T05:29:37;8.88;;;3.45;;
60241;SDS011;46103;52.076;113.488;2023-03-03T05:32:40;12.32;;;3.88;;
60241;SDS011;46103;52.076;113.488;2023-03-03T05:35:44;8.10;;;3.65;;
60241;SDS011;46103;52.076;113.488;2023-03-03T05:38:47;8.02;;;4.00;;
60241;SDS011;46103;52.076;113.488;2023-03-03T05:41:51;10.50;;;4.15;;
60241;SDS011;46103;52.076;113.488;2023-03-03T05:44:54;8.30;;;4.55;;
60241;SDS011;46103;52.076;113.488;2023-03-03T05:47:58;13.55;;;4.78;;
60241;SDS011;46103;52.076;113.488;2023-03-03T05:51:02;10.10;;;4.28;;
60241;SDS011;46103;52.076;113.488;2023-03-03T05:54:06;9.48;;;4.93;;
60241;SDS011;46103;52.076;113.488;2023-03-03T05:57:09;11.25;;;4.57;;
60241;SDS011;46103;52.076;113.488;2023-03-03T06:00:14;11.90;;;4.10;;
60241;SDS011;46103;52.076;113.488;2023-03-03T06:03:18;13.82;;;4.60;;
60241;SDS011;46103;52.076;113.488;2023-03-03T06:06:21;12.85;;;3.53;;
60241;SDS011;46103;52.076;113.488;2023-03-03T06:09:25;10.23;;;3.58;;
60241;SDS011;46103;52.076;113.488;2023-03-03T06:12:28;8.90;;;3.63;;
60241;SDS011;46103;52.076;113.488;2023-03-03T06:15:31;10.95;;;4.43;;
60241;SDS011;46103;52.076;113.488;2023-03-03T06:18:35;11.60;;;4.22;;
60241;SDS011;46103;52.076;113.488;2023-03-03T06:21:38;10.18;;;4.35;;
60241;SDS011;46103;52.076;113.488;2023-03-03T06:24:42;12.18;;;4.57;;
60241;SDS011;46103;52.076;113.488;2023-03-03T06:27:47;9.43;;;3.50;;
60241;SDS011;46103;52.076;113.488;2023-03-03T06:30:53;15.65;;;7.55;;
60241;SDS011;46103;52.076;113.488;2023-03-03T06:33:58;14.52;;;4.30;;
60241;SDS011;46103;52.076;113.488;2023-03-03T06:37:02;11.85;;;4.32;;
60241;SDS011;46103;52.076;113.488;2023-03-03T06:40:05;19.38;;;5.25;;
60241;SDS011;46103;52.076;113.488;2023-03-03T06:43:09;11.48;;;4.05;;
60241;SDS011;46103;52.076;113.488;2023-03-03T06:46:13;10.05;;;3.95;;
60241;SDS011;46103;52.076;113.488;2023-03-03T06:49:16;11.48;;;4.20;;
60241;SDS011;46103;52.076;113.488;2023-03-03T06:52:21;8.95;;;3.75;;
60241;SDS011;46103;52.076;113.488;2023-03-03T06:55:26;12.83;;;4.13;;
60241;SDS011;46103;52.076;113.488;2023-03-03T06:58:29;11.02;;;4.80;;
60241;SDS011;46103;52.076;113.488;2023-03-03T07:01:34;6.22;;;3.15;;
60241;SDS011;46103;52.076;113.488;2023-03-03T07:04:39;9.55;;;4.15;;
60241;SDS011;46103;52.076;113.488;2023-03-03T07:07:43;9.50;;;4.80;;
60241;SDS011;46103;52.076;113.488;2023-03-03T07:10:48;13.23;;;4.75;;
60241;SDS011;46103;52.076;113.488;2023-03-03T07:13:53;11.05;;;4.57;;
60241;SDS011;46103;52.076;113.488;2023-03-03T07:17:01;7.97;;;3.90;;
60241;SDS011;46103;52.076;113.488;2023-03-03T07:20:53;6.28;;;3.20;;
60241;SDS011;46103;52.076;113.488;2023-03-03T07:23:49;5.75;;;2.97;;
60241;SDS011;46103;52.076;113.488;2023-03-03T07:27:39;6.15;;;3.72;;
60241;SDS011;46103;52.076;113.488;2023-03-03T07:30:28;7.45;;;3.47;;
60241;SDS011;46103;52.076;113.488;2023-03-03T07:33:37;7.55;;;3.90;;
60241;SDS011;46103;52.076;113.488;2023-03-03T07:36:46;5.57;;;3.17;;
60241;SDS011;46103;52.076;113.488;2023-03-03T07:39:52;7.22;;;3.30;;
60241;SDS011;46103;52.076;113.488;2023-03-03T07:42:55;7.25;;;3.45;;
60241;SDS011;46103;52.076;113.488;2023-03-03T07:49:33;6.45;;;3.47;;
60241;SDS011;46103;52.076;113.488;2023-03-03T07:52:39;4.90;;;2.97;;
60241;SDS011;46103;52.076;113.488;2023-03-03T07:55:45;6.35;;;3.67;;
60241;SDS011;46103;52.076;113.488;2023-03-03T07:58:49;6.63;;;3.65;;
60241;SDS011;46103;52.076;113.488;2023-03-03T08:01:53;8.35;;;3.75;;
60241;SDS011;46103;52.076;113.488;2023-03-03T08:04:59;7.38;;;3.65;;
60241;SDS011;46103;52.076;113.488;2023-03-03T08:11:15;7.57;;;3.50;;
60241;SDS011;46103;52.076;113.488;2023-03-03T08:14:22;5.97;;;2.83;;
60241;SDS011;46103;52.076;113.488;2023-03-03T08:17:33;8.32;;;3.00;;
60241;SDS011;46103;52.076;113.488;2023-03-03T08:20:42;7.45;;;3.50;;
60241;SDS011;46103;52.076;113.488;2023-03-03T08:23:48;8.20;;;3.07;;
60241;SDS011;46103;52.076;113.488;2023-03-03T08:26:53;8.25;;;4.30;;
60241;SDS011;46103;52.076;113.488;2023-03-03T08:29:57;5.82;;;3.08;;
60241;SDS011;46103;52.076;113.488;2023-03-03T08:33:01;5.80;;;3.40;;
60241;SDS011;46103;52.076;113.488;2023-03-03T08:36:05;5.13;;;2.80;;
60241;SDS011;46103;52.076;113.488;2023-03-03T08:39:12;8.80;;;4.22;;
60241;SDS011;46103;52.076;113.488;2023-03-03T08:42:16;6.53;;;3.75;;
60241;SDS011;46103;52.076;113.488;2023-03-03T08:45:24;4.88;;;3.25;;
60241;SDS011;46103;52.076;113.488;2023-03-03T08:48:28;6.10;;;3.28;;
60241;SDS011;46103;52.076;113.488;2023-03-03T08:51:33;10.63;;;4.10;;
60241;SDS011;46103;52.076;113.488;2023-03-03T08:54:37;8.90;;;3.35;;
60241;SDS011;46103;52.076;113.488;2023-03-03T08:57:41;10.73;;;3.60;;
60241;SDS011;46103;52.076;113.488;2023-03-03T09:00:44;6.10;;;2.78;;
60241;SDS011;46103;52.076;113.488;2023-03-03T09:03:51;7.03;;;3.55;;
60241;SDS011;46103;52.076;113.488;2023-03-03T09:06:55;9.23;;;3.65;;
60241;SDS011;46103;52.076;113.488;2023-03-03T09:09:59;11.52;;;3.88;;
60241;SDS011;46103;52.076;113.488;2023-03-03T09:13:06;11.35;;;3.58;;
60241;SDS011;46103;52.076;113.488;2023-03-03T09:16:15;11.48;;;4.53;;
60241;SDS011;46103;52.076;113.488;2023-03-03T09:22:23;11.30;;;3.80;;
60241;SDS011;46103;52.076;113.488;2023-03-03T09:25:32;15.50;;;4.82;;
60241;SDS011;46103;52.076;113.488;2023-03-03T09:28:39;23.52;;;9.02;;
60241;SDS011;46103;52.076;113.488;2023-03-03T09:31:45;9.50;;;3.40;;
60241;SDS011;46103;52.076;113.488;2023-03-03T09:34:52;9.48;;;3.75;;
60241;SDS011;46103;52.076;113.488;2023-03-03T09:37:55;5.60;;;2.63;;
60241;SDS011;46103;52.076;113.488;2023-03-03T09:44:38;10.50;;;3.40;;
60241;SDS011;46103;52.076;113.488;2023-03-03T09:48:14;10.35;;;3.75;;
60241;SDS011;46103;52.076;113.488;2023-03-03T09:51:36;8.18;;;3.10;;
60241;SDS011;46103;52.076;113.488;2023-03-03T09:55:07;9.60;;;3.03;;
60241;SDS011;46103;52.076;113.488;2023-03-03T10:02:00;6.82;;;2.63;;
60241;SDS011;46103;52.076;113.488;2023-03-03T10:05:48;12.07;;;3.33;;
60241;SDS011;46103;52.076;113.488;2023-03-03T10:40:59;36.70;;;15.95;;
60241;SDS011;46103;52.076;113.488;2023-03-03T10:58:16;51.83;;;21.02;;
60241;SDS011;46103;52.076;113.488;2023-03-03T11:22:41;66.38;;;25.58;;
60241;SDS011;46103;52.076;113.488;2023-03-03T11:25:49;50.15;;;19.42;;
60241;SDS011;46103;52.076;113.488;2023-03-03T11:32:37;35.70;;;15.38;;
60241;SDS011;46103;52.076;113.488;2023-03-03T11:36:08;45.45;;;18.17;;
60241;SDS011;46103;52.076;113.488;2023-03-03T11:39:24;41.97;;;18.02;;
60241;SDS011;46103;52.076;113.488;2023-03-03T11:42:46;63.28;;;24.85;;
60241;SDS011;46103;52.076;113.488;2023-03-03T11:46:42;53.45;;;22.70;;
60241;SDS011;46103;52.076;113.488;2023-03-03T11:50:01;55.47;;;21.75;;
60241;SDS011;46103;52.076;113.488;2023-03-03T11:56:42;48.08;;;18.08;;
60241;SDS011;46103;52.076;113.488;2023-03-03T11:59:58;46.83;;;19.60;;
60241;SDS011;46103;52.076;113.488;2023-03-03T12:06:45;49.42;;;19.13;;
60241;SDS011;46103;52.076;113.488;2023-03-03T12:10:27;35.05;;;14.75;;
60241;SDS011;46103;52.076;113.488;2023-03-03T12:17:12;56.20;;;19.70;;
60241;SDS011;46103;52.076;113.488;2023-03-03T12:24:20;44.15;;;19.35;;
60241;SDS011;46103;52.076;113.488;2023-03-03T12:34:24;29.55;;;12.80;;
60241;SDS011;46103;52.076;113.488;2023-03-03T12:40:40;46.15;;;16.55;;
60241;SDS011;46103;52.076;113.488;2023-03-03T12:47:15;52.75;;;20.90;;
60241;SDS011;46103;52.076;113.488;2023-03-03T12:50:26;45.05;;;19.52;;
60241;SDS011;46103;52.076;113.488;2023-03-03T13:00:20;45.72;;;17.13;;
60241;SDS011;46103;52.076;113.488;2023-03-03T13:10:44;48.13;;;16.45;;
60241;SDS011;46103;52.076;113.488;2023-03-03T13:17:31;29.63;;;11.25;;
60241;SDS011;46103;52.076;113.488;2023-03-03T13:27:26;46.03;;;17.35;;
60241;SDS011;46103;52.076;113.488;2023-03-03T13:30:54;51.33;;;19.75;;
60241;SDS011;46103;52.076;113.488;2023-03-03T13:37:42;49.45;;;18.42;;
60241;SDS011;46103;52.076;113.488;2023-03-03T13:40:53;44.72;;;16.33;;
60241;SDS011;46103;52.076;113.488;2023-03-03T13:44:11;47.28;;;18.17;;
60241;SDS011;46103;52.076;113.488;2023-03-03T13:47:47;56.45;;;19.23;;
60241;SDS011;46103;52.076;113.488;2023-03-03T13:54:41;37.17;;;14.40;;
60241;SDS011;46103;52.076;113.488;2023-03-03T13:57:59;39.40;;;15.20;;
60241;SDS011;46103;52.076;113.488;2023-03-03T14:01:23;43.92;;;13.98;;
60241;SDS011;46103;52.076;113.488;2023-03-03T14:05:16;43.47;;;15.20;;
60241;SDS011;46103;52.076;113.488;2023-03-03T14:08:45;47.58;;;16.80;;
60241;SDS011;46103;52.076;113.488;2023-03-03T14:15:27;39.50;;;14.73;;
60241;SDS011;46103;52.076;113.488;2023-03-03T14:21:55;34.35;;;14.63;;
60241;SDS011;46103;52.076;113.488;2023-03-03T14:25:08;32.45;;;12.95;;
60241;SDS011;46103;52.076;113.488;2023-03-03T14:28:20;29.73;;;11.27;;
60241;SDS011;46103;52.076;113.488;2023-03-03T14:31:30;23.73;;;9.68;;
60241;SDS011;46103;52.076;113.488;2023-03-03T14:34:42;28.05;;;9.63;;
60241;SDS011;46103;52.076;113.488;2023-03-03T14:37:46;22.98;;;7.15;;
60241;SDS011;46103;52.076;113.488;2023-03-03T14:41:02;31.63;;;12.18;;
60241;SDS011;46103;52.076;113.488;2023-03-03T14:44:23;31.42;;;11.50;;
60241;SDS011;46103;52.076;113.488;2023-03-03T14:47:27;44.97;;;14.57;;
60241;SDS011;46103;52.076;113.488;2023-03-03T14:53:37;32.97;;;11.07;;
60241;SDS011;46103;52.076;113.488;2023-03-03T15:00:33;29.25;;;10.82;;
60241;SDS011;46103;52.076;113.488;2023-03-03T15:03:38;25.02;;;9.68;;
60241;SDS011;46103;52.076;113.488;2023-03-03T15:06:52;39.40;;;14.48;;
60241;SDS011;46103;52.076;113.488;2023-03-03T15:09:57;20.27;;;7.70;;
60241;SDS011;46103;52.076;113.488;2023-03-03T15:13:34;19.50;;;8.57;;
60241;SDS011;46103;52.076;113.488;2023-03-03T15:16:35;20.58;;;7.85;;
60241;SDS011;46103;52.076;113.488;2023-03-03T15:29:35;66.10;;;24.50;;
60241;SDS011;46103;52.076;113.488;2023-03-03T15:32:54;81.75;;;28.08;;
60241;SDS011;46103;52.076;113.488;2023-03-03T15:37:01;50.33;;;17.73;;
60241;SDS011;46103;52.076;113.488;2023-03-03T15:43:27;50.47;;;17.17;;
60241;SDS011;46103;52.076;113.488;2023-03-03T15:46:45;60.28;;;19.40;;
60241;SDS011;46103;52.076;113.488;2023-03-03T16:00:36;69.07;;;26.25;;
60241;SDS011;46103;52.076;113.488;2023-03-03T16:04:04;69.45;;;26.83;;
60241;SDS011;46103;52.076;113.488;2023-03-03T16:10:35;95.15;;;30.73;;
60241;SDS011;46103;52.076;113.488;2023-03-03T16:20:39;85.38;;;27.52;;
60241;SDS011;46103;52.076;113.488;2023-03-03T16:27:43;80.18;;;25.20;;
60241;SDS011;46103;52.076;113.488;2023-03-03T16:30:56;58.53;;;21.40;;
60241;SDS011;46103;52.076;113.488;2023-03-03T16:41:37;30.33;;;10.88;;
60241;SDS011;46103;52.076;113.488;2023-03-03T16:51:44;41.60;;;13.77;;
60241;SDS011;46103;52.076;113.488;2023-03-03T16:54:56;34.10;;;12.68;;
60241;SDS011;46103;52.076;113.488;2023-03-03T17:01:45;55.13;;;18.23;;
60241;SDS011;46103;52.076;113.488;2023-03-03T17:05:00;43.15;;;17.05;;
60241;SDS011;46103;52.076;113.488;2023-03-03T17:08:22;52.90;;;16.40;;
60241;SDS011;46103;52.076;113.488;2023-03-03T17:11:44;44.00;;;15.63;;
60241;SDS011;46103;52.076;113.488;2023-03-03T17:19:00;41.33;;;15.30;;
60241;SDS011;46103;52.076;113.488;2023-03-03T17:39:51;36.35;;;14.18;;
60241;SDS011;46103;52.076;113.488;2023-03-03T17:49:41;51.90;;;16.95;;
60241;SDS011;46103;52.076;113.488;2023-03-03T17:59:50;46.05;;;15.07;;
60241;SDS011;46103;52.076;113.488;2023-03-03T18:10:21;33.35;;;12.38;;
60241;SDS011;46103;52.076;113.488;2023-03-03T18:17:47;28.23;;;10.13;;
60241;SDS011;46103;52.076;113.488;2023-03-03T18:23:48;35.20;;;10.93;;
60241;SDS011;46103;52.076;113.488;2023-03-03T18:26:53;33.42;;;11.63;;
60241;SDS011;46103;52.076;113.488;2023-03-03T18:33:10;26.98;;;10.65;;
60241;SDS011;46103;52.076;113.488;2023-03-03T18:39:36;31.25;;;9.60;;
60241;SDS011;46103;52.076;113.488;2023-03-03T18:42:47;36.25;;;11.52;;
60241;SDS011;46103;52.076;113.488;2023-03-03T18:45:55;31.98;;;11.23;;
60241;SDS011;46103;52.076;113.488;2023-03-03T18:49:03;29.75;;;10.98;;
60241;SDS011;46103;52.076;113.488;2023-03-03T18:52:21;47.08;;;14.15;;
60241;SDS011;46103;52.076;113.488;2023-03-03T18:55:28;45.90;;;14.65;;
60241;SDS011;46103;52.076;113.488;2023-03-03T18:58:54;34.92;;;12.50;;
60241;SDS011;46103;52.076;113.488;2023-03-03T19:05:25;30.73;;;10.00;;
60241;SDS011;46103;52.076;113.488;2023-03-03T19:11:58;27.20;;;10.40;;
60241;SDS011;46103;52.076;113.488;2023-03-03T19:15:01;32.40;;;10.25;;
60241;SDS011;46103;52.076;113.488;2023-03-03T19:19:13;29.60;;;10.77;;
60241;SDS011;46103;52.076;113.488;2023-03-03T19:25:30;34.63;;;12.15;;
60241;SDS011;46103;52.076;113.488;2023-03-03T19:28:39;37.88;;;13.20;;
60241;SDS011;46103;52.076;113.488;2023-03-03T19:32:09;32.45;;;11.75;;
60241;SDS011;46103;52.076;113.488;2023-03-03T19:42:43;27.27;;;9.70;;
60241;SDS011;46103;52.076;113.488;2023-03-03T19:52:59;33.22;;;11.38;;
60241;SDS011;46103;52.076;113.488;2023-03-03T19:57:00;30.35;;;11.23;;
60241;SDS011;46103;52.076;113.488;2023-03-03T20:00:09;26.30;;;10.52;;
60241;SDS011;46103;52.076;113.488;2023-03-03T20:03:23;34.40;;;11.25;;
60241;SDS011;46103;52.076;113.488;2023-03-03T20:10:56;31.00;;;11.02;;
60241;SDS011;46103;52.076;113.488;2023-03-03T20:14:09;30.70;;;10.45;;
60241;SDS011;46103;52.076;113.488;2023-03-03T20:27:43;26.95;;;9.20;;
60241;SDS011;46103;52.076;113.488;2023-03-03T20:30:58;23.80;;;9.30;;
60241;SDS011;46103;52.076;113.488;2023-03-03T20:40:53;23.70;;;7.22;;
60241;SDS011;46103;52.076;113.488;2023-03-03T20:44:27;30.88;;;9.48;;
60241;SDS011;46103;52.076;113.488;2023-03-03T20:51:09;47.05;;;14.85;;
60241;SDS011;46103;52.076;113.488;2023-03-03T20:54:39;37.13;;;13.77;;
60241;SDS011;46103;52.076;113.488;2023-03-03T20:58:06;33.28;;;12.25;;
60241;SDS011;46103;52.076;113.488;2023-03-03T21:01:14;37.83;;;11.13;;
60241;SDS011;46103;52.076;113.488;2023-03-03T21:04:24;25.30;;;9.73;;
60241;SDS011;46103;52.076;113.488;2023-03-03T21:07:34;24.25;;;9.98;;
60241;SDS011;46103;52.076;113.488;2023-03-03T21:10:38;31.20;;;9.77;;
60241;SDS011;46103;52.076;113.488;2023-03-03T21:13:45;37.85;;;14.13;;
60241;SDS011;46103;52.076;113.488;2023-03-03T21:16:57;53.72;;;19.60;;
60241;SDS011;46103;52.076;113.488;2023-03-03T21:23:31;74.97;;;25.08;;
60241;SDS011;46103;52.076;113.488;2023-03-03T21:27:12;73.57;;;24.70;;
60241;SDS011;46103;52.076;113.488;2023-03-03T21:30:25;64.85;;;22.33;;
60241;SDS011;46103;52.076;113.488;2023-03-03T21:33:38;46.13;;;15.52;;
60241;SDS011;46103;52.076;113.488;2023-03-03T21:36:47;48.63;;;17.15;;
60241;SDS011;46103;52.076;113.488;2023-03-03T21:40:10;45.65;;;15.20;;
60241;SDS011;46103;52.076;113.488;2023-03-03T21:46:58;34.47;;;12.43;;
60241;SDS011;46103;52.076;113.488;2023-03-03T21:50:03;39.25;;;14.35;;
60241;SDS011;46103;52.076;113.488;2023-03-03T21:53:06;47.67;;;17.17;;
60241;SDS011;46103;52.076;113.488;2023-03-03T21:56:10;44.50;;;16.45;;
60241;SDS011;46103;52.076;113.488;2023-03-03T21:59:16;36.55;;;12.27;;
60241;SDS011;46103;52.076;113.488;2023-03-03T22:02:20;50.35;;;16.80;;
60241;SDS011;46103;52.076;113.488;2023-03-03T22:05:24;37.45;;;12.43;;
60241;SDS011;46103;52.076;113.488;2023-03-03T22:08:27;44.75;;;15.55;;
60241;SDS011;46103;52.076;113.488;2023-03-03T22:11:31;47.15;;;16.13;;
60241;SDS011;46103;52.076;113.488;2023-03-03T22:14:35;39.58;;;13.73;;
60241;SDS011;46103;52.076;113.488;2023-03-03T22:17:38;33.53;;;11.15;;
60241;SDS011;46103;52.076;113.488;2023-03-03T22:20:43;35.38;;;12.52;;
60241;SDS011;46103;52.076;113.488;2023-03-03T22:23:47;34.70;;;10.85;;
60241;SDS011;46103;52.076;113.488;2023-03-03T22:26:50;26.73;;;10.60;;
60241;SDS011;46103;52.076;113.488;2023-03-03T22:29:53;38.22;;;13.30;;
60241;SDS011;46103;52.076;113.488;2023-03-03T22:32:57;34.67;;;13.18;;
60241;SDS011;46103;52.076;113.488;2023-03-03T22:36:01;29.92;;;12.48;;
60241;SDS011;46103;52.076;113.488;2023-03-03T22:39:04;34.25;;;12.50;;
60241;SDS011;46103;52.076;113.488;2023-03-03T22:42:08;30.10;;;10.13;;
60241;SDS011;46103;52.076;113.488;2023-03-03T22:45:12;32.80;;;12.30;;
60241;SDS011;46103;52.076;113.488;2023-03-03T22:48:16;31.40;;;10.63;;
60241;SDS011;46103;52.076;113.488;2023-03-03T22:51:20;33.47;;;13.38;;
60241;SDS011;46103;52.076;113.488;2023-03-03T22:54:24;57.05;;;16.92;;
60241;SDS011;46103;52.076;113.488;2023-03-03T22:57:28;38.53;;;14.18;;
60241;SDS011;46103;52.076;113.488;2023-03-03T23:00:33;48.50;;;14.15;;
60241;SDS011;46103;52.076;113.488;2023-03-03T23:03:38;57.13;;;20.67;;
60241;SDS011;46103;52.076;113.488;2023-03-03T23:06:42;60.03;;;21.90;;
60241;SDS011;46103;52.076;113.488;2023-03-03T23:09:47;81.63;;;25.17;;
60241;SDS011;46103;52.076;113.488;2023-03-03T23:12:50;93.40;;;26.35;;
60241;SDS011;46103;52.076;113.488;2023-03-03T23:15:53;76.47;;;26.13;;
60241;SDS011;46103;52.076;113.488;2023-03-03T23:19:01;67.07;;;23.92;;
60241;SDS011;46103;52.076;113.488;2023-03-03T23:22:06;69.35;;;24.13;;
60241;SDS011;46103;52.076;113.488;2023-03-03T23:25:09;64.38;;;22.80;;
60241;SDS011;46103;52.076;113.488;2023-03-03T23:28:14;62.67;;;19.65;;
60241;SDS011;46103;52.076;113.488;2023-03-03T23:31:18;47.53;;;19.25;;
60241;SDS011;46103;52.076;113.488;2023-03-03T23:34:22;51.90;;;19.23;;
60241;SDS011;46103;52.076;113.488;2023-03-03T23:37:26;59.65;;;19.63;;
60241;SDS011;46103;52.076;113.488;2023-03-03T23:40:31;76.78;;;23.60;;
60241;SDS011;46103;52.076;113.488;2023-03-03T23:43:34;54.00;;;18.55;;